createdAt,value
2016-09-12T00:00:22.055Z,0
2016-09-12T00:01:21.505Z,0
2016-09-12T00:02:21.795Z,0
2016-09-12T00:03:22.617Z,0
2016-09-12T00:04:21.509Z,0
2016-09-12T00:05:21.700Z,0
2016-09-12T00:06:21.511Z,0
2016-09-12T00:07:21.635Z,0
2016-09-12T00:08:22.098Z,0
2016-09-12T00:09:22.698Z,0
2016-09-12T00:10:21.510Z,0
2016-09-12T00:11:21.977Z,0
2016-09-12T00:12:21.801Z,0
2016-09-12T00:13:21.490Z,0
2016-09-12T00:14:21.592Z,0
2016-09-12T00:15:21.465Z,0
2016-09-12T00:16:21.495Z,0
2016-09-12T00:17:22.691Z,0
2016-09-12T00:18:22.105Z,0
2016-09-12T00:19:21.659Z,0
2016-09-12T00:20:21.654Z,0
2016-09-12T00:21:22.244Z,0
2016-09-12T00:22:22.279Z,0
2016-09-12T00:23:21.468Z,0
2016-09-12T00:24:22.385Z,0
2016-09-12T00:25:21.808Z,0
2016-09-12T00:26:21.566Z,0
2016-09-12T00:27:22.243Z,0
2016-09-12T00:28:21.762Z,0
2016-09-12T00:29:21.732Z,0
2016-09-12T00:30:21.878Z,0
2016-09-12T00:31:21.511Z,0
2016-09-12T00:32:21.518Z,0
2016-09-12T00:33:21.908Z,0
2016-09-12T00:34:21.617Z,0
2016-09-12T00:35:21.478Z,0
2016-09-12T00:36:22.892Z,0
2016-09-12T00:37:21.790Z,0
2016-09-12T00:38:21.517Z,0
2016-09-12T00:39:21.480Z,0
2016-09-12T00:40:21.759Z,0
2016-09-12T00:41:21.666Z,0
2016-09-12T00:42:21.643Z,0
2016-09-12T00:43:21.600Z,0
2016-09-12T00:44:21.645Z,0
2016-09-12T00:45:22.498Z,0
2016-09-12T00:46:21.839Z,0
2016-09-12T00:47:21.783Z,0
2016-09-12T00:48:21.551Z,0
2016-09-12T00:49:21.556Z,0
2016-09-12T00:50:21.906Z,0
2016-09-12T00:51:22.452Z,0
2016-09-12T00:52:21.614Z,0
2016-09-12T00:53:22.086Z,0
2016-09-12T00:54:21.683Z,0
2016-09-12T00:55:21.807Z,0
2016-09-12T00:56:23.539Z,0
2016-09-12T00:57:22.051Z,0
2016-09-12T00:58:21.836Z,0
2016-09-12T00:59:21.608Z,0
2016-09-12T01:00:22.087Z,0
2016-09-12T01:01:21.542Z,0
2016-09-12T01:02:22.006Z,0
2016-09-12T01:03:21.555Z,0
2016-09-12T01:04:21.542Z,0
2016-09-12T01:05:22.199Z,0
2016-09-12T01:06:21.634Z,0
2016-09-12T01:07:21.937Z,0
2016-09-12T01:08:22.187Z,0
2016-09-12T01:09:22.594Z,0
2016-09-12T01:10:21.626Z,0
2016-09-12T01:11:22.306Z,0
2016-09-12T01:12:21.661Z,0
2016-09-12T01:13:21.705Z,0
2016-09-12T01:14:21.982Z,0
2016-09-12T01:15:21.741Z,0
2016-09-12T01:16:21.540Z,0
2016-09-12T01:17:21.896Z,0
2016-09-12T01:18:22.124Z,0
2016-09-12T01:19:21.808Z,0
2016-09-12T01:20:21.629Z,0
2016-09-12T01:21:21.854Z,0
2016-09-12T01:22:21.583Z,0
2016-09-12T01:23:21.511Z,0
2016-09-12T01:24:21.870Z,0
2016-09-12T01:25:21.657Z,0
2016-09-12T01:26:21.578Z,0
2016-09-12T01:27:22.205Z,0
2016-09-12T01:28:22.243Z,0
2016-09-12T01:29:21.462Z,0
2016-09-12T01:30:22.276Z,0
2016-09-12T01:31:21.663Z,0
2016-09-12T01:32:22.218Z,0
2016-09-12T01:33:21.628Z,0
2016-09-12T01:34:21.513Z,0
2016-09-12T01:35:22.811Z,0
2016-09-12T01:36:22.344Z,0
2016-09-12T01:37:21.994Z,0
2016-09-12T01:38:21.738Z,0
2016-09-12T01:39:21.516Z,0
2016-09-12T01:40:21.502Z,0
2016-09-12T01:41:21.798Z,0
2016-09-12T01:42:21.506Z,0
2016-09-12T01:43:21.849Z,0
2016-09-12T01:44:21.682Z,0
2016-09-12T01:45:21.730Z,0
2016-09-12T01:46:22.395Z,0
2016-09-12T01:47:22.154Z,0
2016-09-12T01:48:22.101Z,0
2016-09-12T01:49:23.886Z,0
2016-09-12T01:50:23.293Z,0
2016-09-12T01:51:21.905Z,0
2016-09-12T01:52:22.854Z,0
2016-09-12T01:53:22.812Z,0
2016-09-12T01:54:21.650Z,0
2016-09-12T01:55:21.611Z,0
2016-09-12T01:56:22.350Z,0
2016-09-12T01:57:22.246Z,0
2016-09-12T01:58:22.595Z,0
2016-09-12T01:59:21.681Z,0
2016-09-12T02:00:21.872Z,0
2016-09-12T02:01:22.217Z,0
2016-09-12T02:02:21.644Z,0
2016-09-12T02:03:21.548Z,0
2016-09-12T02:04:22.784Z,0
2016-09-12T02:05:21.532Z,0
2016-09-12T02:06:21.980Z,0
2016-09-12T02:07:21.897Z,0
2016-09-12T02:08:21.806Z,0
2016-09-12T02:09:21.721Z,0
2016-09-12T02:10:23.188Z,0
2016-09-12T02:11:22.281Z,0
2016-09-12T02:12:22.474Z,0
2016-09-12T02:13:22.480Z,0
2016-09-12T02:14:21.618Z,0
2016-09-12T02:15:21.950Z,0
2016-09-12T02:16:22.392Z,0
2016-09-12T02:17:21.623Z,0
2016-09-12T02:18:22.225Z,0
2016-09-12T02:19:22.778Z,0
2016-09-12T02:20:21.623Z,0
2016-09-12T02:21:21.730Z,0
2016-09-12T02:22:21.703Z,0
2016-09-12T02:23:21.812Z,0
2016-09-12T02:24:21.649Z,0
2016-09-12T02:25:21.634Z,0
2016-09-12T02:26:21.606Z,0
2016-09-12T02:27:21.632Z,0
2016-09-12T02:28:21.893Z,0
2016-09-12T02:29:21.628Z,0
2016-09-12T02:30:21.698Z,0
2016-09-12T02:31:21.923Z,0
2016-09-12T02:32:21.576Z,0
2016-09-12T02:33:21.861Z,0
2016-09-12T02:34:21.656Z,0
2016-09-12T02:35:21.613Z,0
2016-09-12T02:36:21.608Z,0
2016-09-12T02:37:21.767Z,0
2016-09-12T02:38:21.981Z,0
2016-09-12T02:39:21.517Z,0
2016-09-12T02:40:21.678Z,0
2016-09-12T02:41:21.692Z,0
2016-09-12T02:42:22.092Z,0
2016-09-12T02:43:21.664Z,0
2016-09-12T02:44:22.505Z,0
2016-09-12T02:45:21.631Z,0
2016-09-12T02:46:21.711Z,0
2016-09-12T02:47:21.592Z,0
2016-09-12T02:48:21.732Z,0
2016-09-12T02:49:22.543Z,0
2016-09-12T02:50:21.832Z,0
2016-09-12T02:51:21.634Z,0
2016-09-12T02:52:21.745Z,0
2016-09-12T02:53:21.846Z,0
2016-09-12T02:54:21.649Z,0
2016-09-12T02:55:21.696Z,0
2016-09-12T02:56:21.699Z,0
2016-09-12T02:57:21.668Z,0
2016-09-12T02:58:21.738Z,0
2016-09-12T02:59:21.578Z,0
2016-09-12T03:00:22.093Z,0
2016-09-12T03:01:21.860Z,0
2016-09-12T03:02:21.590Z,0
2016-09-12T03:03:21.683Z,0
2016-09-12T03:04:21.700Z,0
2016-09-12T03:05:21.607Z,0
2016-09-12T03:06:22.212Z,0
2016-09-12T03:07:22.058Z,0
2016-09-12T03:08:21.851Z,0
2016-09-12T03:09:21.585Z,0
2016-09-12T03:10:21.635Z,0
2016-09-12T03:11:21.733Z,0
2016-09-12T03:12:21.879Z,0
2016-09-12T03:13:21.528Z,0
2016-09-12T03:14:21.911Z,0
2016-09-12T03:15:21.589Z,0
2016-09-12T03:16:21.990Z,0
2016-09-12T03:17:21.654Z,0
2016-09-12T03:18:21.930Z,0
2016-09-12T03:19:21.802Z,0
2016-09-12T03:20:21.639Z,0
2016-09-12T03:21:21.612Z,0
2016-09-12T03:22:21.770Z,0
2016-09-12T03:23:21.627Z,0
2016-09-12T03:24:21.829Z,0
2016-09-12T03:25:21.699Z,0
2016-09-12T03:26:22.117Z,0
2016-09-12T03:27:21.619Z,0
2016-09-12T03:28:22.200Z,0
2016-09-12T03:29:21.931Z,0
2016-09-12T03:30:22.036Z,0
2016-09-12T03:31:21.779Z,0
2016-09-12T03:32:21.732Z,0
2016-09-12T03:33:21.774Z,0
2016-09-12T03:34:22.095Z,0
2016-09-12T03:35:21.619Z,0
2016-09-12T03:36:21.747Z,0
2016-09-12T03:37:21.745Z,0
2016-09-12T03:38:21.647Z,0
2016-09-12T03:39:21.742Z,0
2016-09-12T03:40:21.674Z,0
2016-09-12T03:41:21.593Z,0
2016-09-12T03:42:23.016Z,0
2016-09-12T03:43:21.795Z,0
2016-09-12T03:44:21.998Z,0
2016-09-12T03:45:21.921Z,0
2016-09-12T03:46:21.710Z,0
2016-09-12T03:47:22.364Z,0
2016-09-12T03:48:21.717Z,0
2016-09-12T03:49:22.169Z,0
2016-09-12T03:50:22.132Z,0
2016-09-12T03:51:22.055Z,0
2016-09-12T03:52:21.784Z,0
2016-09-12T03:53:21.907Z,0
2016-09-12T03:54:22.490Z,0
2016-09-12T03:55:21.995Z,0
2016-09-12T03:56:21.657Z,0
2016-09-12T03:57:21.825Z,0
2016-09-12T03:58:21.798Z,0
2016-09-12T03:59:21.824Z,0
2016-09-12T04:00:22.008Z,0
2016-09-12T04:01:21.853Z,0
2016-09-12T04:02:22.625Z,0
2016-09-12T04:03:21.827Z,0
2016-09-12T04:04:22.080Z,0
2016-09-12T04:05:21.706Z,0
2016-09-12T04:06:21.669Z,0
2016-09-12T04:07:21.850Z,0
2016-09-12T04:08:21.675Z,0
2016-09-12T04:09:21.707Z,0
2016-09-12T04:10:21.863Z,0
2016-09-12T04:11:24.265Z,0
2016-09-12T04:12:21.776Z,0
2016-09-12T04:13:21.891Z,0
2016-09-12T04:14:21.778Z,0
2016-09-12T04:15:22.018Z,0
2016-09-12T04:16:23.120Z,0
2016-09-12T04:17:24.383Z,0
2016-09-12T04:18:23.798Z,0
2016-09-12T04:19:22.095Z,0
2016-09-12T04:20:21.715Z,0
2016-09-12T04:21:21.773Z,0
2016-09-12T04:22:21.941Z,0
2016-09-12T04:23:21.852Z,0
2016-09-12T04:24:21.806Z,0
2016-09-12T04:25:21.931Z,0
2016-09-12T04:26:21.958Z,0
2016-09-12T04:27:21.759Z,0
2016-09-12T04:28:21.703Z,0
2016-09-12T04:29:21.941Z,0
2016-09-12T04:30:21.796Z,0
2016-09-12T04:31:21.641Z,0
2016-09-12T04:32:21.763Z,0
2016-09-12T04:33:22.658Z,0
2016-09-12T04:34:24.411Z,0
2016-09-12T04:35:21.908Z,0
2016-09-12T04:36:21.792Z,0
2016-09-12T04:37:22.060Z,0
2016-09-12T04:38:21.733Z,0
2016-09-12T04:39:21.940Z,0
2016-09-12T04:40:21.685Z,0
2016-09-12T04:41:21.955Z,0
2016-09-12T04:42:21.967Z,0
2016-09-12T04:43:21.805Z,0
2016-09-12T04:44:21.918Z,0
2016-09-12T04:45:21.698Z,0
2016-09-12T04:46:21.793Z,0
2016-09-12T04:47:21.747Z,0
2016-09-12T04:48:21.910Z,0
2016-09-12T04:49:21.976Z,0
2016-09-12T04:50:22.850Z,0
2016-09-12T04:51:22.137Z,0
2016-09-12T04:52:21.820Z,0
2016-09-12T04:53:22.055Z,0
2016-09-12T04:54:21.841Z,0
2016-09-12T04:55:21.708Z,5
2016-09-12T04:56:21.825Z,5
2016-09-12T04:57:21.842Z,5
2016-09-12T04:58:22.014Z,5
2016-09-12T04:59:21.848Z,5
2016-09-12T05:00:21.875Z,5
2016-09-12T05:01:22.170Z,5
2016-09-12T05:02:21.725Z,5
2016-09-12T05:03:21.822Z,10
2016-09-12T05:05:23.523Z,10
2016-09-12T05:07:12.070Z,10
2016-09-12T05:08:17.407Z,10
2016-09-12T05:10:09.542Z,15
2016-09-12T05:11:05.013Z,15
2016-09-12T05:12:23.297Z,15
2016-09-12T05:13:36.428Z,20
2016-09-12T05:14:49.685Z,20
2016-09-12T05:16:21.798Z,20
2016-09-12T05:16:55.671Z,20
2016-09-12T05:17:41.504Z,20
2016-09-12T05:18:41.733Z,25
2016-09-12T05:19:40.381Z,25
2016-09-12T05:20:41.252Z,25
2016-09-12T05:21:40.218Z,25
2016-09-12T05:22:40.304Z,30
2016-09-12T05:23:40.329Z,30
2016-09-12T05:24:40.403Z,30
2016-09-12T05:25:40.538Z,30
2016-09-12T05:26:40.550Z,35
2016-09-12T05:27:40.773Z,35
2016-09-12T05:28:40.670Z,35
2016-09-12T05:29:40.408Z,35
2016-09-12T05:30:40.710Z,35
2016-09-12T05:31:41.357Z,40
2016-09-12T05:32:40.378Z,40
2016-09-12T05:33:40.531Z,40
2016-09-12T05:34:40.449Z,40
2016-09-12T05:35:44.043Z,45
2016-09-12T05:36:40.481Z,45
2016-09-12T05:37:43.356Z,45
2016-09-12T05:38:40.506Z,45
2016-09-12T05:39:40.304Z,50
2016-09-12T05:40:40.275Z,50
2016-09-12T05:41:40.458Z,50
2016-09-12T05:42:40.715Z,50
2016-09-12T05:43:40.700Z,50
2016-09-12T05:44:41.018Z,50
2016-09-12T05:45:41.528Z,50
2016-09-12T05:46:40.419Z,55
2016-09-12T05:47:40.973Z,55
2016-09-12T05:48:41.693Z,60
2016-09-12T05:49:40.305Z,60
2016-09-12T05:50:40.445Z,60
2016-09-12T05:51:40.357Z,65
2016-09-12T05:52:40.783Z,65
2016-09-12T05:53:40.349Z,65
2016-09-12T05:54:42.468Z,65
2016-09-12T05:55:40.819Z,65
2016-09-12T05:56:40.880Z,70
2016-09-12T05:57:40.409Z,70
2016-09-12T05:58:40.717Z,70
2016-09-12T05:59:40.519Z,70
2016-09-12T06:00:40.674Z,75
2016-09-12T06:01:41.449Z,75
2016-09-12T06:02:41.077Z,75
2016-09-12T06:03:40.589Z,75
2016-09-12T06:04:41.433Z,75
2016-09-12T06:05:40.504Z,80
2016-09-12T06:06:41.507Z,80
2016-09-12T06:07:41.263Z,80
2016-09-12T06:08:40.537Z,80
2016-09-12T06:10:01.355Z,85
2016-09-12T06:10:40.503Z,85
2016-09-12T06:11:44.061Z,85
2016-09-12T06:12:43.073Z,85
2016-09-12T06:13:44.687Z,90
2016-09-12T06:14:42.401Z,90
2016-09-12T06:15:42.305Z,90
2016-09-12T06:16:40.755Z,90
2016-09-12T06:17:40.733Z,90
2016-09-12T06:18:41.692Z,95
2016-09-12T06:19:41.789Z,95
2016-09-12T06:21:03.919Z,95
2016-09-12T06:24:32.701Z,100
2016-09-12T06:24:42.621Z,100
2016-09-12T06:25:42.960Z,100
2016-09-12T06:26:42.876Z,100
2016-09-12T06:27:42.752Z,105
2016-09-12T06:28:43.260Z,105
2016-09-12T06:29:43.014Z,105
2016-09-12T06:30:42.621Z,105
2016-09-12T06:31:42.628Z,110
2016-09-12T06:32:42.605Z,110
2016-09-12T06:33:42.618Z,110
2016-09-12T06:34:42.698Z,110
2016-09-12T06:35:42.704Z,110
2016-09-12T06:36:42.652Z,110
2016-09-12T06:37:42.665Z,110
2016-09-12T06:38:42.650Z,110
2016-09-12T06:39:42.752Z,110
2016-09-12T06:40:58.523Z,110
2016-09-12T06:48:51.089Z,120
2016-09-12T12:52:34.999Z,140
2016-09-12T12:53:35.008Z,140
2016-09-12T12:54:34.971Z,140
2016-09-12T12:55:35.281Z,140
2016-09-12T12:56:34.948Z,140
2016-09-12T12:57:34.956Z,140
2016-09-12T12:58:34.961Z,140
2016-09-12T12:59:34.983Z,140
2016-09-12T13:00:34.970Z,140
2016-09-12T13:01:35.003Z,140
2016-09-12T13:02:34.976Z,140
2016-09-12T13:03:34.971Z,140
2016-09-12T13:04:34.981Z,140
2016-09-12T13:05:35.553Z,140
2016-09-12T13:06:35.070Z,135
2016-09-12T13:07:34.951Z,135
2016-09-12T13:08:35.010Z,135
2016-09-12T13:09:34.956Z,135
2016-09-12T13:10:34.999Z,135
2016-09-12T13:11:34.995Z,135
2016-09-12T13:12:34.993Z,140
2016-09-12T13:13:34.967Z,135
2016-09-12T13:14:34.968Z,135
2016-09-12T13:15:35.067Z,135
2016-09-12T13:16:34.967Z,135
2016-09-12T13:17:35.092Z,135
2016-09-12T13:18:34.974Z,135
2016-09-12T13:19:35.050Z,135
2016-09-12T13:20:34.989Z,135
2016-09-12T13:21:35.012Z,135
2016-09-12T13:22:35.223Z,135
2016-09-12T13:23:34.978Z,135
2016-09-12T13:24:35.028Z,135
2016-09-12T13:25:34.989Z,135
2016-09-12T13:26:34.951Z,135
2016-09-12T13:27:35.052Z,135
2016-09-12T13:28:35.037Z,135
2016-09-12T13:29:35.032Z,135
2016-09-12T13:30:34.999Z,135
2016-09-12T13:31:35.030Z,135
2016-09-12T13:32:34.984Z,135
2016-09-12T13:33:35.059Z,135
2016-09-12T13:34:34.974Z,135
2016-09-12T13:35:35.597Z,135
2016-09-12T13:36:35.690Z,135
2016-09-12T13:37:34.997Z,135
2016-09-12T13:38:34.993Z,135
2016-09-12T13:39:35.013Z,135
2016-09-12T13:40:34.978Z,135
2016-09-12T13:41:35.086Z,135
2016-09-12T13:42:35.035Z,135
2016-09-12T13:43:34.993Z,135
2016-09-12T13:44:34.980Z,135
2016-09-12T13:45:35.090Z,135
2016-09-12T13:46:34.988Z,135
2016-09-12T13:47:35.051Z,135
2016-09-12T13:48:35.057Z,135
2016-09-12T13:49:35.047Z,135
2016-09-12T13:50:35.038Z,135
2016-09-12T13:51:35.008Z,135
2016-09-12T13:52:35.094Z,135
2016-09-12T13:53:35.010Z,135
2016-09-12T13:54:35.045Z,135
2016-09-12T13:55:35.029Z,135
2016-09-12T13:56:35.044Z,135
2016-09-12T13:57:35.033Z,135
2016-09-12T13:58:35.038Z,135
2016-09-12T13:59:35.064Z,135
2016-09-12T14:00:35.000Z,130
2016-09-12T14:01:35.077Z,135
2016-09-12T14:02:35.022Z,135
2016-09-12T14:03:35.049Z,135
2016-09-12T14:04:35.143Z,135
2016-09-12T14:05:35.044Z,135
2016-09-12T14:06:35.041Z,135
2016-09-12T14:07:35.025Z,135
2016-09-12T14:08:35.017Z,135
2016-09-12T14:09:35.075Z,135
2016-09-12T14:10:35.112Z,135
2016-09-12T14:11:35.028Z,135
2016-09-12T14:12:35.006Z,135
2016-09-12T14:13:35.013Z,135
2016-09-12T14:14:35.019Z,135
2016-09-12T14:15:35.023Z,135
2016-09-12T14:16:35.030Z,135
2016-09-12T14:17:35.068Z,135
2016-09-12T14:18:35.111Z,135
2016-09-12T14:19:35.039Z,135
2016-09-12T14:20:36.607Z,135
2016-09-12T14:21:35.019Z,135
2016-09-12T14:22:35.069Z,135
2016-09-12T14:23:35.004Z,135
2016-09-12T14:24:35.130Z,130
2016-09-12T14:25:35.178Z,130
2016-09-12T14:26:35.029Z,130
2016-09-12T14:27:35.074Z,130
2016-09-12T14:28:35.073Z,135
2016-09-12T14:29:35.031Z,130
2016-09-12T14:30:35.127Z,130
2016-09-12T14:31:35.032Z,130
2016-09-12T14:32:35.125Z,130
2016-09-12T14:33:35.104Z,130
2016-09-12T14:34:35.038Z,130
2016-09-12T14:35:35.106Z,130
2016-09-12T14:36:35.037Z,130
2016-09-12T14:37:35.069Z,130
2016-09-12T14:38:35.109Z,130
2016-09-12T14:39:35.090Z,130
2016-09-12T14:40:35.810Z,130
2016-09-12T14:41:35.087Z,130
2016-09-12T14:42:35.046Z,130
2016-09-12T14:43:35.094Z,130
2016-09-12T14:44:35.222Z,130
2016-09-12T14:45:35.068Z,130
2016-09-12T14:46:35.145Z,130
2016-09-12T14:47:35.005Z,130
2016-09-12T14:48:35.073Z,130
2016-09-12T14:49:35.121Z,130
2016-09-12T14:50:35.056Z,130
2016-09-12T14:51:35.097Z,130
2016-09-12T14:52:35.132Z,130
2016-09-12T14:53:35.059Z,130
2016-09-12T14:54:35.034Z,130
2016-09-12T14:55:35.087Z,130
2016-09-12T14:56:35.122Z,130
2016-09-12T14:57:35.062Z,130
2016-09-12T14:58:35.080Z,130
2016-09-12T14:59:35.155Z,125
2016-09-12T15:00:35.123Z,125
2016-09-12T15:01:35.126Z,125
2016-09-12T15:02:35.181Z,125
2016-09-12T15:03:35.120Z,125
2016-09-12T15:04:35.164Z,125
2016-09-12T15:05:35.104Z,125
2016-09-12T15:06:35.170Z,125
2016-09-12T15:07:35.095Z,125
2016-09-12T15:08:35.164Z,125
2016-09-12T15:09:35.141Z,125
2016-09-12T15:10:35.094Z,125
2016-09-12T15:11:35.244Z,125
2016-09-12T15:12:35.138Z,125
2016-09-12T15:13:35.112Z,125
2016-09-12T15:14:35.173Z,125
2016-09-12T15:15:35.109Z,125
2016-09-12T15:16:35.232Z,125
2016-09-12T15:17:35.167Z,125
2016-09-12T15:18:35.177Z,125
2016-09-12T15:19:35.127Z,120
2016-09-12T15:20:35.124Z,120
2016-09-12T15:21:35.196Z,120
2016-09-12T15:22:35.166Z,120
2016-09-12T15:23:35.152Z,120
2016-09-12T15:24:35.114Z,120
2016-09-12T15:25:35.205Z,120
2016-09-12T15:26:35.186Z,120
2016-09-12T15:27:35.118Z,120
2016-09-12T15:28:35.822Z,120
2016-09-12T15:29:35.219Z,120
2016-09-12T15:30:35.188Z,120
2016-09-12T15:31:35.137Z,115
2016-09-12T15:32:36.029Z,115
2016-09-12T15:33:35.141Z,115
2016-09-12T15:34:35.206Z,115
2016-09-12T15:35:38.409Z,115
2016-09-12T15:36:35.092Z,115
2016-09-12T15:37:35.165Z,115
2016-09-12T15:38:35.208Z,115
2016-09-12T15:39:35.201Z,115
2016-09-12T15:40:35.119Z,115
2016-09-12T15:41:35.125Z,110
2016-09-12T15:42:35.123Z,110
2016-09-12T15:43:40.917Z,110
2016-09-12T15:44:40.696Z,110
2016-09-12T15:45:40.914Z,110
2016-09-12T15:46:41.514Z,110
2016-09-12T15:47:41.802Z,110
2016-09-12T15:48:41.119Z,110
2016-09-12T15:49:39.541Z,105
2016-09-12T15:50:40.996Z,105
2016-09-12T15:51:40.416Z,105
2016-09-12T15:52:40.570Z,105
2016-09-12T15:53:40.168Z,105
2016-09-12T15:54:41.029Z,105
2016-09-12T15:55:39.747Z,105
2016-09-12T15:56:41.718Z,105
2016-09-12T15:57:40.620Z,105
2016-09-12T15:58:39.880Z,100
2016-09-12T15:59:39.783Z,100
2016-09-12T16:00:41.529Z,100
2016-09-12T16:01:40.715Z,100
2016-09-12T16:02:39.577Z,100
2016-09-12T16:03:39.241Z,100
2016-09-12T16:04:41.194Z,100
2016-09-12T16:05:39.912Z,100
2016-09-12T16:06:39.679Z,100
2016-09-12T16:07:41.444Z,95
2016-09-12T16:08:39.700Z,95
2016-09-12T16:09:40.660Z,95
2016-09-12T16:12:51.011Z,95
2016-09-12T16:14:21.936Z,95
2016-09-12T16:14:31.902Z,95
2016-09-12T16:15:32.059Z,95
2016-09-12T16:16:31.913Z,90
2016-09-12T16:17:31.915Z,90
2016-09-12T16:18:32.697Z,90
2016-09-12T16:19:31.902Z,90
2016-09-12T16:20:31.825Z,90
2016-09-12T16:21:31.944Z,90
2016-09-12T16:22:31.870Z,90
2016-09-12T16:23:31.884Z,90
2016-09-12T16:24:31.935Z,90
2016-09-12T16:25:31.932Z,90
2016-09-12T16:26:31.902Z,90
2016-09-12T16:27:31.956Z,90
2016-09-12T16:28:31.901Z,90
2016-09-12T16:29:31.980Z,85
2016-09-12T16:30:31.946Z,85
2016-09-12T16:31:31.922Z,85
2016-09-12T16:32:32.001Z,85
2016-09-12T16:33:31.950Z,85
2016-09-12T16:34:31.927Z,80
2016-09-12T16:35:31.909Z,80
2016-09-12T16:36:31.901Z,80
2016-09-12T16:37:31.932Z,80
2016-09-12T16:38:31.970Z,80
2016-09-12T16:39:31.908Z,75
2016-09-12T16:40:31.957Z,75
2016-09-12T16:41:31.935Z,75
2016-09-12T16:42:31.983Z,75
2016-09-12T16:43:31.970Z,75
2016-09-12T16:44:32.437Z,75
2016-09-12T16:45:32.439Z,70
2016-09-12T16:46:33.294Z,70
2016-09-12T16:47:32.535Z,70
2016-09-12T16:48:31.933Z,70
2016-09-12T16:49:31.912Z,65
2016-09-12T16:50:32.768Z,65
2016-09-12T16:51:33.172Z,65
2016-09-12T16:52:32.360Z,65
2016-09-12T16:53:33.070Z,65
2016-09-12T16:54:32.393Z,60
2016-09-12T16:55:32.010Z,60
2016-09-12T16:56:32.175Z,60
2016-09-12T16:57:32.880Z,60
2016-09-12T16:58:31.965Z,60
2016-09-12T16:59:32.712Z,55
2016-09-12T17:00:32.230Z,55
2016-09-12T17:01:32.253Z,55
2016-09-12T17:02:32.576Z,55
2016-09-12T17:03:32.658Z,50
2016-09-12T17:04:32.080Z,50
2016-09-12T17:05:31.940Z,50
2016-09-12T17:06:32.218Z,50
2016-09-12T17:07:32.710Z,50
2016-09-12T17:08:32.805Z,45
2016-09-12T17:09:31.992Z,45
2016-09-12T17:10:31.965Z,45
2016-09-12T17:11:32.975Z,45
2016-09-12T17:12:31.970Z,40
2016-09-12T17:13:32.707Z,40
2016-09-12T17:14:31.987Z,40
2016-09-12T17:15:32.079Z,40
2016-09-12T17:16:32.039Z,40
2016-09-12T17:17:31.946Z,35
2016-09-12T17:18:32.073Z,35
2016-09-12T17:19:32.016Z,35
2016-09-12T17:20:31.923Z,35
2016-09-12T17:21:32.182Z,30
2016-09-12T17:22:31.962Z,30
2016-09-12T17:23:33.882Z,30
2016-09-12T17:24:32.462Z,30
2016-09-12T17:25:33.485Z,25
2016-09-12T17:26:32.081Z,25
2016-09-12T17:27:31.998Z,25
2016-09-12T17:28:32.897Z,25
2016-09-12T17:29:32.361Z,25
2016-09-12T17:30:33.613Z,20
2016-09-12T17:31:32.860Z,20
2016-09-12T17:32:31.985Z,20
2016-09-12T17:33:32.022Z,20
2016-09-12T17:34:33.674Z,20
2016-09-12T17:35:32.606Z,15
2016-09-12T17:36:33.302Z,15
2016-09-12T17:37:35.194Z,15
2016-09-12T17:38:32.107Z,15
2016-09-12T17:39:33.089Z,15
2016-09-12T17:40:32.101Z,10
2016-09-12T17:41:32.782Z,10
2016-09-12T17:42:33.257Z,10
2016-09-12T17:43:32.868Z,10
2016-09-12T17:44:34.395Z,10
2016-09-12T17:45:32.448Z,10
2016-09-12T17:46:32.514Z,10
2016-09-12T17:47:32.595Z,5
2016-09-12T17:48:32.309Z,5
2016-09-12T17:49:33.568Z,5
2016-09-12T17:50:32.511Z,5
2016-09-12T17:51:32.138Z,5
2016-09-12T17:52:32.412Z,5
2016-09-12T17:53:32.299Z,5
2016-09-12T17:54:32.845Z,0
2016-09-12T17:55:33.725Z,0
2016-09-12T17:56:32.113Z,0
2016-09-12T17:57:32.228Z,0
2016-09-12T17:58:33.034Z,0
2016-09-12T17:59:32.018Z,0
2016-09-12T18:00:32.135Z,0
2016-09-12T18:01:33.040Z,0
2016-09-12T18:02:32.547Z,0
2016-09-12T18:03:32.025Z,0
2016-09-12T18:04:32.019Z,0
2016-09-12T18:05:32.096Z,0
2016-09-12T18:06:33.109Z,0
2016-09-12T18:07:32.262Z,0
2016-09-12T18:08:32.679Z,0
2016-09-12T18:09:32.130Z,0
2016-09-12T18:10:32.186Z,0
2016-09-12T18:11:33.340Z,0
2016-09-12T18:12:32.980Z,0
2016-09-12T18:13:32.026Z,0
2016-09-12T18:14:32.941Z,0
2016-09-12T18:15:32.984Z,0
2016-09-12T18:16:32.526Z,0
2016-09-12T18:17:32.323Z,0
2016-09-12T18:18:32.141Z,0
2016-09-12T18:19:32.078Z,0
2016-09-12T18:20:32.126Z,0
2016-09-12T18:21:32.270Z,0
2016-09-12T18:22:32.162Z,0
2016-09-12T18:23:32.117Z,0
2016-09-12T18:24:32.087Z,0
2016-09-12T18:25:32.164Z,0
2016-09-12T18:26:32.098Z,0
2016-09-12T18:27:32.925Z,0
2016-09-12T18:28:32.807Z,0
2016-09-12T18:29:32.185Z,0
2016-09-12T18:30:32.411Z,0
2016-09-12T18:31:32.242Z,0
2016-09-12T18:32:32.397Z,0
2016-09-12T18:33:32.165Z,0
2016-09-12T18:34:32.475Z,0
2016-09-12T18:35:32.386Z,0
2016-09-12T18:36:32.113Z,0
2016-09-12T18:37:32.167Z,0
2016-09-12T18:38:32.271Z,0
2016-09-12T18:39:32.295Z,0
2016-09-12T18:40:32.325Z,0
2016-09-12T18:41:32.861Z,0
2016-09-12T18:42:32.253Z,0
2016-09-12T18:43:32.388Z,0
2016-09-12T18:44:32.898Z,0
2016-09-12T18:45:32.187Z,0
2016-09-12T18:46:32.209Z,0
2016-09-12T18:47:32.216Z,0
2016-09-12T18:48:32.234Z,0
2016-09-12T18:49:32.257Z,0
2016-09-12T18:50:32.251Z,0
2016-09-12T18:51:32.280Z,0
2016-09-12T18:52:32.381Z,0
2016-09-12T18:53:32.415Z,0
2016-09-12T18:54:32.356Z,0
2016-09-12T18:55:32.199Z,0
2016-09-12T18:56:32.213Z,0
2016-09-12T18:57:32.177Z,0
2016-09-12T18:58:32.180Z,0
2016-09-12T18:59:32.262Z,0
2016-09-12T19:00:32.475Z,0
2016-09-12T19:01:32.352Z,0
2016-09-12T19:02:32.165Z,0
2016-09-12T19:03:32.113Z,0
2016-09-12T19:04:32.387Z,0
2016-09-12T19:05:32.252Z,0
2016-09-12T19:06:32.252Z,0
2016-09-12T19:07:32.292Z,0
2016-09-12T19:08:32.183Z,0
2016-09-12T19:09:32.227Z,0
2016-09-12T19:10:32.196Z,0
2016-09-12T19:11:32.959Z,0
2016-09-12T19:12:32.325Z,0
2016-09-12T19:13:32.203Z,0
2016-09-12T19:14:32.143Z,0
2016-09-12T19:15:32.097Z,0
2016-09-12T19:16:32.104Z,0
2016-09-12T19:17:32.268Z,0
2016-09-12T19:18:32.239Z,0
2016-09-12T19:19:32.277Z,0
2016-09-12T19:20:32.365Z,0
2016-09-12T19:21:32.463Z,0
2016-09-12T19:22:32.164Z,0
2016-09-12T19:23:32.132Z,0
2016-09-12T19:24:32.258Z,0
2016-09-12T19:25:32.341Z,0
2016-09-12T19:26:32.265Z,0
2016-09-12T19:27:32.175Z,0
2016-09-12T19:28:32.271Z,0
2016-09-12T19:29:32.272Z,0
2016-09-12T19:30:32.273Z,0
2016-09-12T19:31:32.235Z,0
2016-09-12T19:32:32.360Z,0
2016-09-12T19:33:32.254Z,0
2016-09-12T19:34:32.424Z,0
2016-09-12T19:35:32.385Z,0
2016-09-12T19:36:32.231Z,0
2016-09-12T19:37:32.311Z,0
2016-09-12T19:38:32.139Z,0
2016-09-12T19:39:32.179Z,0
2016-09-12T19:40:32.309Z,0
2016-09-12T19:41:32.170Z,0
2016-09-12T19:42:32.158Z,0
2016-09-12T19:43:32.199Z,0
2016-09-12T19:44:32.158Z,0
2016-09-12T19:45:32.170Z,0
2016-09-12T19:46:32.158Z,0
2016-09-12T19:47:32.164Z,0
2016-09-12T19:48:32.190Z,0
2016-09-12T19:49:32.190Z,0
2016-09-12T19:50:32.163Z,0
2016-09-12T19:51:32.197Z,0
2016-09-12T19:52:32.095Z,0
2016-09-12T19:53:32.205Z,0
2016-09-12T19:54:32.155Z,0
2016-09-12T19:55:32.159Z,0
2016-09-12T19:56:32.182Z,0
2016-09-12T19:57:32.162Z,0
2016-09-12T19:58:32.181Z,0
2016-09-12T19:59:32.197Z,0
2016-09-12T20:00:32.224Z,0
2016-09-12T20:01:32.284Z,0
2016-09-12T20:02:32.211Z,0
2016-09-12T20:03:32.254Z,0
2016-09-12T20:04:32.203Z,0
2016-09-12T20:05:32.226Z,0
2016-09-12T20:06:32.195Z,0
2016-09-12T20:07:32.162Z,0
2016-09-12T20:08:32.229Z,0
2016-09-12T20:09:32.186Z,0
2016-09-12T20:10:32.200Z,0
2016-09-12T20:11:32.290Z,0
2016-09-12T20:12:32.200Z,0
2016-09-12T20:13:33.438Z,0
2016-09-12T20:14:32.259Z,0
2016-09-12T20:15:33.263Z,0
2016-09-12T20:16:32.201Z,0
2016-09-12T20:17:32.211Z,0
2016-09-12T20:18:32.243Z,0
2016-09-12T20:19:32.162Z,0
2016-09-12T20:20:32.259Z,0
2016-09-12T20:21:32.955Z,0
2016-09-12T20:22:32.201Z,0
2016-09-12T20:23:32.152Z,0
2016-09-12T20:24:32.197Z,0
2016-09-12T20:25:32.214Z,0
2016-09-12T20:26:32.181Z,0
2016-09-12T20:27:32.262Z,0
2016-09-12T20:28:32.140Z,0
2016-09-12T20:29:32.171Z,0
2016-09-12T20:30:32.152Z,0
2016-09-12T20:31:32.204Z,0
2016-09-12T20:32:32.161Z,0
2016-09-12T20:33:32.178Z,0
2016-09-12T20:34:32.163Z,0
2016-09-12T20:35:32.168Z,0
2016-09-12T20:36:32.256Z,0
2016-09-12T20:37:32.229Z,0
2016-09-12T20:38:32.248Z,0
2016-09-12T20:39:32.198Z,0
2016-09-12T20:40:32.249Z,0
2016-09-12T20:41:32.197Z,0
2016-09-12T20:42:32.174Z,0